sensor_id;sensor_type;location;lat;lon;timestamp;P1;durP1;ratioP1;P2;durP2;ratioP2
23565;SDS011;22140;48.988;8.544;2024-01-15T00:04:28;32.97;;;10.80;;
23565;SDS011;22140;48.988;8.544;2024-01-15T00:09:30;37.95;;;11.18;;
23565;SDS011;22140;48.988;8.544;2024-01-15T00:14:31;40.65;;;10.80;;
23565;SDS011;22140;48.988;8.544;2024-01-15T00:19:32;36.33;;;11.57;;
23565;SDS011;22140;48.988;8.544;2024-01-15T00:24:34;40.72;;;12.05;;
23565;SDS011;22140;48.988;8.544;2024-01-15T00:29:36;36.28;;;10.43;;
23565;SDS011;22140;48.988;8.544;2024-01-15T00:34:37;42.65;;;12.35;;
23565;SDS011;22140;48.988;8.544;2024-01-15T00:39:38;47.55;;;13.23;;
23565;SDS011;22140;48.988;8.544;2024-01-15T00:44:40;42.47;;;12.47;;
23565;SDS011;22140;48.988;8.544;2024-01-15T00:49:41;41.08;;;11.93;;
23565;SDS011;22140;48.988;8.544;2024-01-15T00:54:43;44.33;;;12.30;;
23565;SDS011;22140;48.988;8.544;2024-01-15T00:59:44;46.53;;;12.35;;
23565;SDS011;22140;48.988;8.544;2024-01-15T01:04:46;44.10;;;12.50;;
23565;SDS011;22140;48.988;8.544;2024-01-15T01:09:47;37.13;;;11.60;;
23565;SDS011;22140;48.988;8.544;2024-01-15T01:14:49;42.65;;;12.20;;
23565;SDS011;22140;48.988;8.544;2024-01-15T01:19:50;42.65;;;13.55;;
23565;SDS011;22140;48.988;8.544;2024-01-15T01:24:52;41.60;;;13.30;;
23565;SDS011;22140;48.988;8.544;2024-01-15T01:29:53;41.70;;;12.80;;
23565;SDS011;22140;48.988;8.544;2024-01-15T01:34:55;46.83;;;13.07;;
23565;SDS011;22140;48.988;8.544;2024-01-15T01:39:56;43.38;;;12.25;;
23565;SDS011;22140;48.988;8.544;2024-01-15T01:44:57;46.20;;;12.38;;
23565;SDS011;22140;48.988;8.544;2024-01-15T01:49:59;45.25;;;12.07;;
23565;SDS011;22140;48.988;8.544;2024-01-15T01:55:01;40.80;;;11.23;;
23565;SDS011;22140;48.988;8.544;2024-01-15T02:00:03;33.00;;;10.00;;
23565;SDS011;22140;48.988;8.544;2024-01-15T02:05:05;36.22;;;11.23;;
23565;SDS011;22140;48.988;8.544;2024-01-15T02:10:07;38.95;;;10.48;;
23565;SDS011;22140;48.988;8.544;2024-01-15T02:15:08;35.08;;;10.40;;
23565;SDS011;22140;48.988;8.544;2024-01-15T02:20:10;38.10;;;11.25;;
23565;SDS011;22140;48.988;8.544;2024-01-15T02:25:11;38.07;;;10.53;;
23565;SDS011;22140;48.988;8.544;2024-01-15T02:30:13;31.63;;;10.57;;
23565;SDS011;22140;48.988;8.544;2024-01-15T02:35:14;35.85;;;10.05;;
23565;SDS011;22140;48.988;8.544;2024-01-15T02:40:16;35.08;;;10.32;;
23565;SDS011;22140;48.988;8.544;2024-01-15T02:45:17;34.20;;;9.98;;
23565;SDS011;22140;48.988;8.544;2024-01-15T02:50:18;41.73;;;11.47;;
23565;SDS011;22140;48.988;8.544;2024-01-15T02:55:20;38.90;;;10.75;;
23565;SDS011;22140;48.988;8.544;2024-01-15T03:00:21;33.72;;;10.32;;
23565;SDS011;22140;48.988;8.544;2024-01-15T03:05:22;33.83;;;10.10;;
23565;SDS011;22140;48.988;8.544;2024-01-15T03:10:24;44.38;;;12.07;;
23565;SDS011;22140;48.988;8.544;2024-01-15T03:15:25;38.00;;;11.10;;
23565;SDS011;22140;48.988;8.544;2024-01-15T03:20:27;33.53;;;10.32;;
23565;SDS011;22140;48.988;8.544;2024-01-15T03:25:28;35.55;;;10.63;;
23565;SDS011;22140;48.988;8.544;2024-01-15T03:30:29;38.45;;;11.07;;
23565;SDS011;22140;48.988;8.544;2024-01-15T03:35:31;36.40;;;10.55;;
23565;SDS011;22140;48.988;8.544;2024-01-15T03:40:32;37.40;;;11.23;;
23565;SDS011;22140;48.988;8.544;2024-01-15T03:45:34;36.83;;;10.60;;
23565;SDS011;22140;48.988;8.544;2024-01-15T03:50:35;36.00;;;11.50;;
23565;SDS011;22140;48.988;8.544;2024-01-15T03:55:36;36.72;;;10.88;;
23565;SDS011;22140;48.988;8.544;2024-01-15T04:00:38;39.10;;;10.93;;
23565;SDS011;22140;48.988;8.544;2024-01-15T04:05:40;38.57;;;11.77;;
23565;SDS011;22140;48.988;8.544;2024-01-15T04:10:41;36.08;;;11.00;;
23565;SDS011;22140;48.988;8.544;2024-01-15T04:15:43;35.58;;;10.90;;
23565;SDS011;22140;48.988;8.544;2024-01-15T04:20:44;31.55;;;10.10;;
23565;SDS011;22140;48.988;8.544;2024-01-15T04:25:46;34.58;;;10.10;;
23565;SDS011;22140;48.988;8.544;2024-01-15T04:30:47;38.87;;;10.80;;
23565;SDS011;22140;48.988;8.544;2024-01-15T04:35:49;31.88;;;10.45;;
23565;SDS011;22140;48.988;8.544;2024-01-15T04:40:50;41.60;;;11.07;;
23565;SDS011;22140;48.988;8.544;2024-01-15T04:45:54;35.33;;;11.35;;
23565;SDS011;22140;48.988;8.544;2024-01-15T04:50:56;38.25;;;10.68;;
23565;SDS011;22140;48.988;8.544;2024-01-15T04:55:57;38.27;;;10.93;;
23565;SDS011;22140;48.988;8.544;2024-01-15T05:00:59;40.47;;;11.48;;
23565;SDS011;22140;48.988;8.544;2024-01-15T05:06:00;34.65;;;10.57;;
23565;SDS011;22140;48.988;8.544;2024-01-15T05:11:02;35.00;;;10.60;;
23565;SDS011;22140;48.988;8.544;2024-01-15T05:16:03;35.53;;;10.88;;
23565;SDS011;22140;48.988;8.544;2024-01-15T05:21:05;28.57;;;9.63;;
23565;SDS011;22140;48.988;8.544;2024-01-15T05:26:07;39.95;;;11.23;;
23565;SDS011;22140;48.988;8.544;2024-01-15T05:31:10;34.80;;;10.98;;
23565;SDS011;22140;48.988;8.544;2024-01-15T05:36:12;33.30;;;10.32;;
23565;SDS011;22140;48.988;8.544;2024-01-15T05:41:13;36.33;;;11.00;;
23565;SDS011;22140;48.988;8.544;2024-01-15T05:46:15;35.13;;;11.33;;
23565;SDS011;22140;48.988;8.544;2024-01-15T05:51:16;35.20;;;10.93;;
23565;SDS011;22140;48.988;8.544;2024-01-15T05:56:18;32.03;;;10.30;;
23565;SDS011;22140;48.988;8.544;2024-01-15T06:01:19;33.58;;;10.65;;
23565;SDS011;22140;48.988;8.544;2024-01-15T06:06:21;38.30;;;12.05;;
23565;SDS011;22140;48.988;8.544;2024-01-15T06:11:22;32.07;;;10.80;;
23565;SDS011;22140;48.988;8.544;2024-01-15T06:16:30;33.88;;;10.57;;
23565;SDS011;22140;48.988;8.544;2024-01-15T06:21:32;32.08;;;10.52;;
23565;SDS011;22140;48.988;8.544;2024-01-15T06:26:33;33.53;;;11.43;;
23565;SDS011;22140;48.988;8.544;2024-01-15T06:31:34;34.08;;;10.43;;
23565;SDS011;22140;48.988;8.544;2024-01-15T06:36:36;27.10;;;8.63;;
23565;SDS011;22140;48.988;8.544;2024-01-15T06:41:37;30.95;;;10.32;;
23565;SDS011;22140;48.988;8.544;2024-01-15T06:46:45;31.27;;;10.38;;
23565;SDS011;22140;48.988;8.544;2024-01-15T06:51:46;28.13;;;10.23;;
23565;SDS011;22140;48.988;8.544;2024-01-15T06:56:50;31.90;;;11.13;;
23565;SDS011;22140;48.988;8.544;2024-01-15T07:01:51;33.57;;;10.60;;
23565;SDS011;22140;48.988;8.544;2024-01-15T07:06:53;34.42;;;10.75;;
23565;SDS011;22140;48.988;8.544;2024-01-15T07:11:54;32.55;;;11.20;;
23565;SDS011;22140;48.988;8.544;2024-01-15T07:16:58;35.63;;;10.90;;
23565;SDS011;22140;48.988;8.544;2024-01-15T07:21:59;31.50;;;11.02;;
23565;SDS011;22140;48.988;8.544;2024-01-15T07:27:01;36.03;;;11.90;;
23565;SDS011;22140;48.988;8.544;2024-01-15T07:32:03;35.05;;;12.65;;
23565;SDS011;22140;48.988;8.544;2024-01-15T07:37:04;34.88;;;12.48;;
23565;SDS011;22140;48.988;8.544;2024-01-15T07:42:06;37.20;;;12.10;;
23565;SDS011;22140;48.988;8.544;2024-01-15T07:47:07;37.15;;;12.15;;
23565;SDS011;22140;48.988;8.544;2024-01-15T07:52:10;36.67;;;11.97;;
23565;SDS011;22140;48.988;8.544;2024-01-15T07:57:13;33.60;;;12.00;;
23565;SDS011;22140;48.988;8.544;2024-01-15T08:02:15;32.22;;;11.02;;
23565;SDS011;22140;48.988;8.544;2024-01-15T08:07:17;26.38;;;9.75;;
23565;SDS011;22140;48.988;8.544;2024-01-15T08:12:19;33.38;;;10.48;;
23565;SDS011;22140;48.988;8.544;2024-01-15T08:17:20;30.03;;;10.47;;
23565;SDS011;22140;48.988;8.544;2024-01-15T08:22:22;33.38;;;10.10;;
23565;SDS011;22140;48.988;8.544;2024-01-15T08:27:23;32.67;;;11.18;;
23565;SDS011;22140;48.988;8.544;2024-01-15T08:32:24;34.83;;;11.25;;
23565;SDS011;22140;48.988;8.544;2024-01-15T08:37:26;28.73;;;10.65;;
23565;SDS011;22140;48.988;8.544;2024-01-15T08:42:27;31.43;;;9.97;;
23565;SDS011;22140;48.988;8.544;2024-01-15T08:47:28;31.48;;;10.43;;
23565;SDS011;22140;48.988;8.544;2024-01-15T08:52:30;29.27;;;9.57;;
23565;SDS011;22140;48.988;8.544;2024-01-15T08:57:31;30.10;;;10.30;;
23565;SDS011;22140;48.988;8.544;2024-01-15T09:02:33;29.65;;;9.68;;
23565;SDS011;22140;48.988;8.544;2024-01-15T09:07:34;24.43;;;9.27;;
23565;SDS011;22140;48.988;8.544;2024-01-15T09:12:36;22.85;;;8.52;;
23565;SDS011;22140;48.988;8.544;2024-01-15T09:17:38;27.02;;;8.68;;
23565;SDS011;22140;48.988;8.544;2024-01-15T09:22:39;22.40;;;7.72;;
23565;SDS011;22140;48.988;8.544;2024-01-15T09:27:43;25.35;;;8.85;;
23565;SDS011;22140;48.988;8.544;2024-01-15T09:32:44;23.30;;;9.10;;
23565;SDS011;22140;48.988;8.544;2024-01-15T09:37:45;26.73;;;8.75;;
23565;SDS011;22140;48.988;8.544;2024-01-15T09:42:48;24.77;;;8.52;;
23565;SDS011;22140;48.988;8.544;2024-01-15T09:47:50;26.27;;;8.55;;
23565;SDS011;22140;48.988;8.544;2024-01-15T09:52:54;26.48;;;8.52;;
23565;SDS011;22140;48.988;8.544;2024-01-15T09:57:55;27.70;;;9.07;;
23565;SDS011;22140;48.988;8.544;2024-01-15T10:02:57;30.42;;;9.77;;
23565;SDS011;22140;48.988;8.544;2024-01-15T10:08:00;26.98;;;9.43;;
23565;SDS011;22140;48.988;8.544;2024-01-15T10:13:02;28.27;;;8.90;;
23565;SDS011;22140;48.988;8.544;2024-01-15T10:18:05;22.77;;;7.95;;
23565;SDS011;22140;48.988;8.544;2024-01-15T10:23:06;22.63;;;7.60;;
23565;SDS011;22140;48.988;8.544;2024-01-15T10:28:08;28.77;;;9.30;;
23565;SDS011;22140;48.988;8.544;2024-01-15T10:33:11;26.40;;;9.35;;
23565;SDS011;22140;48.988;8.544;2024-01-15T10:38:13;26.95;;;8.77;;
23565;SDS011;22140;48.988;8.544;2024-01-15T10:43:15;26.55;;;8.80;;
23565;SDS011;22140;48.988;8.544;2024-01-15T10:48:18;18.40;;;6.60;;
23565;SDS011;22140;48.988;8.544;2024-01-15T10:53:20;20.23;;;6.50;;
23565;SDS011;22140;48.988;8.544;2024-01-15T10:58:22;17.02;;;5.93;;
23565;SDS011;22140;48.988;8.544;2024-01-15T11:03:24;19.67;;;7.05;;
23565;SDS011;22140;48.988;8.544;2024-01-15T11:08:26;23.80;;;7.20;;
23565;SDS011;22140;48.988;8.544;2024-01-15T11:19:15;19.65;;;7.00;;
23565;SDS011;22140;48.988;8.544;2024-01-15T11:23:55;20.77;;;6.32;;
23565;SDS011;22140;48.988;8.544;2024-01-15T11:29:00;20.98;;;7.38;;
23565;SDS011;22140;48.988;8.544;2024-01-15T11:34:02;24.50;;;6.97;;
23565;SDS011;22140;48.988;8.544;2024-01-15T11:44:24;20.13;;;6.28;;
23565;SDS011;22140;48.988;8.544;2024-01-15T12:00:07;22.15;;;7.10;;
23565;SDS011;22140;48.988;8.544;2024-01-15T12:05:10;20.10;;;6.63;;
23565;SDS011;22140;48.988;8.544;2024-01-15T12:15:19;19.95;;;8.02;;
23565;SDS011;22140;48.988;8.544;2024-01-15T12:20:20;17.75;;;6.57;;
23565;SDS011;22140;48.988;8.544;2024-01-15T12:25:22;20.05;;;6.32;;
23565;SDS011;22140;48.988;8.544;2024-01-15T12:30:25;25.73;;;6.37;;
23565;SDS011;22140;48.988;8.544;2024-01-15T12:35:26;21.75;;;6.63;;
23565;SDS011;22140;48.988;8.544;2024-01-15T12:40:28;17.92;;;6.30;;
23565;SDS011;22140;48.988;8.544;2024-01-15T12:45:30;17.38;;;5.85;;
23565;SDS011;22140;48.988;8.544;2024-01-15T12:50:33;14.52;;;5.72;;
23565;SDS011;22140;48.988;8.544;2024-01-15T12:55:34;17.70;;;5.93;;
23565;SDS011;22140;48.988;8.544;2024-01-15T13:00:36;17.90;;;6.20;;
23565;SDS011;22140;48.988;8.544;2024-01-15T13:05:37;19.05;;;6.28;;
23565;SDS011;22140;48.988;8.544;2024-01-15T13:10:40;20.33;;;6.13;;
23565;SDS011;22140;48.988;8.544;2024-01-15T13:15:43;19.50;;;6.68;;
23565;SDS011;22140;48.988;8.544;2024-01-15T13:20:44;20.17;;;7.37;;
23565;SDS011;22140;48.988;8.544;2024-01-15T13:25:47;18.02;;;6.78;;
23565;SDS011;22140;48.988;8.544;2024-01-15T13:30:48;19.75;;;6.38;;
23565;SDS011;22140;48.988;8.544;2024-01-15T13:35:50;20.67;;;6.40;;
23565;SDS011;22140;48.988;8.544;2024-01-15T13:40:51;19.27;;;6.72;;
23565;SDS011;22140;48.988;8.544;2024-01-15T13:45:52;17.50;;;6.70;;
23565;SDS011;22140;48.988;8.544;2024-01-15T13:50:55;18.63;;;6.78;;
23565;SDS011;22140;48.988;8.544;2024-01-15T13:55:56;20.05;;;6.90;;
23565;SDS011;22140;48.988;8.544;2024-01-15T14:00:58;17.13;;;5.78;;
23565;SDS011;22140;48.988;8.544;2024-01-15T14:06:00;20.83;;;6.93;;
23565;SDS011;22140;48.988;8.544;2024-01-15T14:11:04;21.10;;;7.00;;
23565;SDS011;22140;48.988;8.544;2024-01-15T14:16:07;16.65;;;5.75;;
23565;SDS011;22140;48.988;8.544;2024-01-15T14:21:08;14.82;;;6.22;;
23565;SDS011;22140;48.988;8.544;2024-01-15T14:26:09;15.00;;;5.93;;
23565;SDS011;22140;48.988;8.544;2024-01-15T14:31:11;17.92;;;6.55;;
23565;SDS011;22140;48.988;8.544;2024-01-15T14:36:12;15.57;;;5.37;;
23565;SDS011;22140;48.988;8.544;2024-01-15T14:41:14;15.77;;;5.80;;
23565;SDS011;22140;48.988;8.544;2024-01-15T14:46:17;14.35;;;5.45;;
23565;SDS011;22140;48.988;8.544;2024-01-15T14:51:19;15.13;;;5.95;;
23565;SDS011;22140;48.988;8.544;2024-01-15T14:56:20;19.30;;;6.25;;
23565;SDS011;22140;48.988;8.544;2024-01-15T15:01:22;16.23;;;5.80;;
23565;SDS011;22140;48.988;8.544;2024-01-15T15:06:24;17.15;;;6.35;;
23565;SDS011;22140;48.988;8.544;2024-01-15T15:11:29;17.52;;;6.18;;
23565;SDS011;22140;48.988;8.544;2024-01-15T15:16:30;14.43;;;5.90;;
23565;SDS011;22140;48.988;8.544;2024-01-15T15:21:31;15.77;;;5.72;;
23565;SDS011;22140;48.988;8.544;2024-01-15T15:26:33;15.40;;;5.47;;
23565;SDS011;22140;48.988;8.544;2024-01-15T15:31:34;13.43;;;5.53;;
23565;SDS011;22140;48.988;8.544;2024-01-15T15:36:35;13.68;;;5.03;;
23565;SDS011;22140;48.988;8.544;2024-01-15T15:41:37;14.77;;;5.75;;
23565;SDS011;22140;48.988;8.544;2024-01-15T15:46:39;17.02;;;6.38;;
23565;SDS011;22140;48.988;8.544;2024-01-15T15:51:40;14.90;;;5.23;;
23565;SDS011;22140;48.988;8.544;2024-01-15T15:56:42;19.08;;;6.45;;
23565;SDS011;22140;48.988;8.544;2024-01-15T16:01:48;15.85;;;6.60;;
23565;SDS011;22140;48.988;8.544;2024-01-15T16:06:50;16.42;;;5.88;;
23565;SDS011;22140;48.988;8.544;2024-01-15T16:11:51;16.60;;;5.28;;
23565;SDS011;22140;48.988;8.544;2024-01-15T16:16:53;15.63;;;5.97;;
23565;SDS011;22140;48.988;8.544;2024-01-15T16:22:18;19.08;;;6.28;;
23565;SDS011;22140;48.988;8.544;2024-01-15T16:27:40;13.45;;;5.13;;
23565;SDS011;22140;48.988;8.544;2024-01-15T16:32:43;15.73;;;5.97;;
23565;SDS011;22140;48.988;8.544;2024-01-15T16:37:45;13.93;;;4.90;;
23565;SDS011;22140;48.988;8.544;2024-01-15T16:42:46;12.27;;;4.70;;
23565;SDS011;22140;48.988;8.544;2024-01-15T16:47:49;12.85;;;4.72;;
23565;SDS011;22140;48.988;8.544;2024-01-15T16:52:51;14.43;;;5.63;;
23565;SDS011;22140;48.988;8.544;2024-01-15T16:57:52;15.35;;;5.82;;
23565;SDS011;22140;48.988;8.544;2024-01-15T17:02:54;12.57;;;4.88;;
23565;SDS011;22140;48.988;8.544;2024-01-15T17:07:55;15.77;;;6.30;;
23565;SDS011;22140;48.988;8.544;2024-01-15T17:12:57;12.50;;;4.72;;
23565;SDS011;22140;48.988;8.544;2024-01-15T17:17:59;14.23;;;4.95;;
23565;SDS011;22140;48.988;8.544;2024-01-15T17:23:00;14.30;;;5.40;;
23565;SDS011;22140;48.988;8.544;2024-01-15T17:28:02;14.95;;;5.20;;
23565;SDS011;22140;48.988;8.544;2024-01-15T17:33:04;17.43;;;5.07;;
23565;SDS011;22140;48.988;8.544;2024-01-15T17:38:05;11.52;;;4.28;;
23565;SDS011;22140;48.988;8.544;2024-01-15T17:43:07;14.75;;;5.10;;
23565;SDS011;22140;48.988;8.544;2024-01-15T17:48:09;14.13;;;5.65;;
23565;SDS011;22140;48.988;8.544;2024-01-15T17:53:11;14.93;;;4.90;;
23565;SDS011;22140;48.988;8.544;2024-01-15T17:58:12;12.40;;;4.73;;
23565;SDS011;22140;48.988;8.544;2024-01-15T18:03:13;13.85;;;4.97;;
23565;SDS011;22140;48.988;8.544;2024-01-15T18:08:15;13.70;;;4.93;;
23565;SDS011;22140;48.988;8.544;2024-01-15T18:13:16;16.40;;;5.28;;
23565;SDS011;22140;48.988;8.544;2024-01-15T18:18:18;10.60;;;4.10;;
23565;SDS011;22140;48.988;8.544;2024-01-15T18:23:19;12.60;;;4.60;;
23565;SDS011;22140;48.988;8.544;2024-01-15T18:28:21;13.50;;;5.07;;
23565;SDS011;22140;48.988;8.544;2024-01-15T18:33:22;12.82;;;4.25;;
23565;SDS011;22140;48.988;8.544;2024-01-15T18:38:24;12.23;;;4.80;;
23565;SDS011;22140;48.988;8.544;2024-01-15T18:43:27;13.20;;;4.85;;
23565;SDS011;22140;48.988;8.544;2024-01-15T18:48:29;15.23;;;4.53;;
23565;SDS011;22140;48.988;8.544;2024-01-15T18:53:30;15.88;;;4.50;;
23565;SDS011;22140;48.988;8.544;2024-01-15T18:58:32;13.35;;;4.32;;
23565;SDS011;22140;48.988;8.544;2024-01-15T19:03:35;13.13;;;4.03;;
23565;SDS011;22140;48.988;8.544;2024-01-15T19:08:36;12.90;;;4.95;;
23565;SDS011;22140;48.988;8.544;2024-01-15T19:13:38;18.43;;;6.87;;
23565;SDS011;22140;48.988;8.544;2024-01-15T19:18:39;14.07;;;4.70;;
23565;SDS011;22140;48.988;8.544;2024-01-15T19:23:41;16.48;;;5.55;;
23565;SDS011;22140;48.988;8.544;2024-01-15T19:28:42;12.25;;;5.40;;
23565;SDS011;22140;48.988;8.544;2024-01-15T19:33:44;12.40;;;3.83;;
23565;SDS011;22140;48.988;8.544;2024-01-15T19:38:45;11.83;;;3.97;;
23565;SDS011;22140;48.988;8.544;2024-01-15T19:43:46;10.73;;;3.40;;
23565;SDS011;22140;48.988;8.544;2024-01-15T19:48:48;13.63;;;4.70;;
23565;SDS011;22140;48.988;8.544;2024-01-15T19:53:50;10.85;;;4.05;;
23565;SDS011;22140;48.988;8.544;2024-01-15T19:58:51;12.32;;;3.92;;
23565;SDS011;22140;48.988;8.544;2024-01-15T20:03:52;13.70;;;4.13;;
23565;SDS011;22140;48.988;8.544;2024-01-15T20:08:54;15.75;;;5.20;;
23565;SDS011;22140;48.988;8.544;2024-01-15T20:13:55;12.05;;;3.92;;
23565;SDS011;22140;48.988;8.544;2024-01-15T20:18:57;12.73;;;4.20;;
23565;SDS011;22140;48.988;8.544;2024-01-15T20:23:59;11.35;;;3.80;;
23565;SDS011;22140;48.988;8.544;2024-01-15T20:29:04;11.67;;;4.30;;
23565;SDS011;22140;48.988;8.544;2024-01-15T20:34:06;12.27;;;4.20;;
23565;SDS011;22140;48.988;8.544;2024-01-15T20:39:08;12.73;;;4.35;;
23565;SDS011;22140;48.988;8.544;2024-01-15T20:44:10;11.70;;;4.32;;
23565;SDS011;22140;48.988;8.544;2024-01-15T20:49:11;13.75;;;4.93;;
23565;SDS011;22140;48.988;8.544;2024-01-15T20:54:13;15.60;;;4.60;;
23565;SDS011;22140;48.988;8.544;2024-01-15T20:59:14;14.85;;;5.15;;
23565;SDS011;22140;48.988;8.544;2024-01-15T21:04:16;14.25;;;4.80;;
23565;SDS011;22140;48.988;8.544;2024-01-15T21:09:18;14.75;;;4.40;;
23565;SDS011;22140;48.988;8.544;2024-01-15T21:14:19;11.98;;;3.60;;
23565;SDS011;22140;48.988;8.544;2024-01-15T21:19:20;12.37;;;4.20;;
23565;SDS011;22140;48.988;8.544;2024-01-15T21:24:22;11.40;;;3.63;;
23565;SDS011;22140;48.988;8.544;2024-01-15T21:29:28;11.57;;;4.30;;
23565;SDS011;22140;48.988;8.544;2024-01-15T21:34:30;11.95;;;3.95;;
23565;SDS011;22140;48.988;8.544;2024-01-15T21:39:31;10.23;;;3.85;;
23565;SDS011;22140;48.988;8.544;2024-01-15T21:44:33;11.83;;;4.40;;
23565;SDS011;22140;48.988;8.544;2024-01-15T21:49:35;10.48;;;3.85;;
23565;SDS011;22140;48.988;8.544;2024-01-15T21:54:36;10.52;;;3.72;;
23565;SDS011;22140;48.988;8.544;2024-01-15T21:59:38;9.93;;;3.97;;
23565;SDS011;22140;48.988;8.544;2024-01-15T22:04:39;12.95;;;4.00;;
23565;SDS011;22140;48.988;8.544;2024-01-15T22:09:40;11.60;;;3.97;;
23565;SDS011;22140;48.988;8.544;2024-01-15T22:14:43;12.15;;;3.60;;
23565;SDS011;22140;48.988;8.544;2024-01-15T22:19:44;10.13;;;3.83;;
23565;SDS011;22140;48.988;8.544;2024-01-15T22:24:45;12.40;;;4.07;;
23565;SDS011;22140;48.988;8.544;2024-01-15T22:29:47;9.48;;;3.40;;
23565;SDS011;22140;48.988;8.544;2024-01-15T22:34:51;11.07;;;3.80;;
23565;SDS011;22140;48.988;8.544;2024-01-15T22:39:53;10.68;;;4.13;;
23565;SDS011;22140;48.988;8.544;2024-01-15T22:44:54;11.20;;;3.72;;
23565;SDS011;22140;48.988;8.544;2024-01-15T22:49:57;11.02;;;3.80;;
23565;SDS011;22140;48.988;8.544;2024-01-15T22:54:58;12.73;;;4.28;;
23565;SDS011;22140;48.988;8.544;2024-01-15T22:59:59;10.67;;;3.90;;
23565;SDS011;22140;48.988;8.544;2024-01-15T23:05:01;11.57;;;3.90;;
23565;SDS011;22140;48.988;8.544;2024-01-15T23:10:05;11.00;;;3.50;;
23565;SDS011;22140;48.988;8.544;2024-01-15T23:15:07;10.45;;;3.50;;
23565;SDS011;22140;48.988;8.544;2024-01-15T23:20:09;11.48;;;3.80;;
23565;SDS011;22140;48.988;8.544;2024-01-15T23:25:12;12.30;;;3.70;;
23565;SDS011;22140;48.988;8.544;2024-01-15T23:30:13;10.05;;;3.50;;
23565;SDS011;22140;48.988;8.544;2024-01-15T23:35:15;9.30;;;3.47;;
23565;SDS011;22140;48.988;8.544;2024-01-15T23:40:16;11.52;;;3.28;;
23565;SDS011;22140;48.988;8.544;2024-01-15T23:45:18;14.35;;;3.67;;
23565;SDS011;22140;48.988;8.544;2024-01-15T23:50:19;12.70;;;3.40;;
23565;SDS011;22140;48.988;8.544;2024-01-15T23:55:20;9.77;;;3.30;;
